Necedah, Wisconsin
Current Conditions -  °F | °C
As of 1:58 PM on Tuesday 21 Oct 2014 (Local Time) from KVOK Reporting Station
Scattered Clouds Scattered Clouds  
Wind Chill: 52°   Ceiling: Unl
Heat Index: 52°   Visibility: 10mi
Dew Point: 39°   Wind: 1mph
Humidity: 62%   Direction: NA
Pressure: 30.23"   Gusts: NA
Location:  44.03°N, 90.07°W
Report Text: KVOK 211858Z VRB01KT 10SM SCT030 11/04 A3023 RMK AO2A SLP245
Loading
Personal Weather Stations






























Interactive Weather Map New forecast layout! Learn more

10-Day Weather Forecast

Advertisements
Track Severe Weather on mobile